Time;durP1;ratioP1;P1;durP2;ratioP2;P2;SDS_P1;SDS_P2;PMS_P1;PMS_P2;Temp;Humidity;BMP_temperature;BMP_pressure;BME280_temperature;BME280_humidity;BME280_pressure;Samples;Min_cycle;Max_cycle;Signal;HPM_P1;HPM_P2
2021/05/20 00:00:11;;;;;;;;;;;10.10;99.90;;;;;;5020395;28;19964;-76
2021/05/20 00:02:37;;;;;;;;;;;10.00;99.90;;;;;;4999947;28;19918;-77
2021/05/20 00:05:03;;;;;;;;;;;10.00;99.90;;;;;;5027200;28;19920;-76
2021/05/20 00:07:29;;;;;;;;;;;10.00;99.90;;;;;;5028991;28;20431;-80
2021/05/20 00:09:54;;;;;;;;;;;10.00;99.90;;;;;;4998700;28;19913;-78
2021/05/20 00:12:20;;;;;;;;;;;10.10;99.90;;;;;;5016243;28;19963;-79
2021/05/20 00:14:45;;;;;;;;;;;10.00;99.90;;;;;;5004613;28;19917;-79
2021/05/20 00:17:11;;;;;;;;;;;10.00;99.90;;;;;;5015909;28;20349;-79
2021/05/20 00:19:36;;;;;;;;;;;10.00;99.90;;;;;;4998985;28;19968;-78
2021/05/20 00:22:02;;;;;;;;;;;10.00;99.90;;;;;;4998246;28;19913;-77
2021/05/20 00:24:28;;;;;;;;;;;9.90;99.90;;;;;;4997544;28;20281;-77
2021/05/20 00:26:53;;;;;;;;;;;9.90;99.90;;;;;;4998434;28;19964;-76
2021/05/20 00:29:19;;;;;;;;;;;9.90;99.90;;;;;;4996487;28;19969;-77
2021/05/20 00:31:44;;;;;;;;;;;9.90;99.90;;;;;;5003249;28;20393;-78
2021/05/20 00:34:10;;;;;;;;;;;10.00;99.90;;;;;;5002839;28;19913;-80
2021/05/20 00:36:35;;;;;;;;;;;9.90;99.90;;;;;;5015076;28;19913;-79
2021/05/20 00:39:02;;;;;;;;;;;9.90;99.90;;;;;;4997495;28;19914;-82
2021/05/20 00:41:28;;;;;;;;;;;9.90;99.90;;;;;;4996795;28;19913;-80
2021/05/20 00:43:54;;;;;;;;;;;9.90;99.90;;;;;;5015032;28;19921;-81
2021/05/20 00:46:20;;;;;;;;;;;9.80;99.90;;;;;;4994450;28;19917;-80
2021/05/20 00:48:45;;;;;;;;;;;9.80;99.90;;;;;;4997110;28;19918;-78
2021/05/20 00:51:11;;;;;;;;;;;9.80;99.90;;;;;;4997256;28;19914;-80
2021/05/20 00:53:36;;;;;;;;;;;9.80;99.90;;;;;;5013589;28;19914;-81
2021/05/20 00:56:02;;;;;;;;;;;9.70;99.90;;;;;;5014730;28;19928;-80
2021/05/20 00:58:28;;;;;;;;;;;9.80;99.90;;;;;;5003219;28;19929;-81
2021/05/20 01:00:56;;;;;;;;;;;9.80;99.90;;;;;;5026361;28;19913;-79
2021/05/20 01:03:22;;;;;;;;;;;9.80;99.90;;;;;;5034360;28;19921;-79
2021/05/20 01:05:48;;;;;;;;;;;9.80;99.90;;;;;;5034429;28;20328;-80
2021/05/20 01:08:13;;;;;;;;;;;9.80;99.90;;;;;;5034295;28;20411;-79
2021/05/20 01:10:39;;;;;;;;;;;9.80;99.90;;;;;;5017055;28;19924;-78
2021/05/20 01:13:04;;;;;;;;;;;9.70;99.90;;;;;;5014231;28;19980;-79
2021/05/20 01:15:32;;;;;;;;;;;9.80;99.90;;;;;;5007170;28;19959;-79
2021/05/20 01:17:59;;;;;;;;;;;9.80;99.90;;;;;;5014718;28;19920;-84
2021/05/20 01:20:25;;;;;;;;;;;9.90;99.90;;;;;;5014920;28;19916;-76
2021/05/20 01:22:51;;;;;;;;;;;10.00;99.90;;;;;;5006562;28;19913;-79
2021/05/20 01:25:17;;;;;;;;;;;10.00;99.90;;;;;;5003575;28;19913;-78
2021/05/20 01:27:43;;;;;;;;;;;10.00;99.90;;;;;;5024814;28;19924;-77
2021/05/20 01:30:09;;;;;;;;;;;10.10;99.90;;;;;;5014020;28;19979;-80
2021/05/20 01:32:35;;;;;;;;;;;10.10;99.90;;;;;;5010361;28;19913;-79
2021/05/20 01:35:00;;;;;;;;;;;10.10;99.90;;;;;;5013764;28;19913;-78
2021/05/20 01:37:26;;;;;;;;;;;10.00;99.90;;;;;;4996285;28;20000;-79
2021/05/20 01:39:51;;;;;;;;;;;10.10;99.90;;;;;;5013577;28;20337;-78
2021/05/20 01:42:17;;;;;;;;;;;10.10;99.90;;;;;;5013896;28;19914;-78
2021/05/20 01:44:42;;;;;;;;;;;10.10;99.90;;;;;;5014195;28;20285;-78
2021/05/20 01:47:08;;;;;;;;;;;10.00;99.90;;;;;;4996517;28;19925;-81
2021/05/20 01:49:33;;;;;;;;;;;10.10;99.90;;;;;;4996602;28;19983;-80
2021/05/20 01:51:59;;;;;;;;;;;10.10;99.90;;;;;;5014290;28;20262;-80
2021/05/20 01:54:24;;;;;;;;;;;10.00;99.90;;;;;;5014338;28;19914;-79
2021/05/20 01:56:50;;;;;;;;;;;10.10;99.90;;;;;;5014334;28;19914;-81
2021/05/20 01:59:15;;;;;;;;;;;10.10;99.90;;;;;;5027381;28;19936;-81
2021/05/20 02:01:41;;;;;;;;;;;10.10;99.90;;;;;;5016201;28;20339;-81
2021/05/20 02:04:06;;;;;;;;;;;10.00;99.90;;;;;;5016278;28;19922;-80
2021/05/20 02:06:32;;;;;;;;;;;10.00;99.90;;;;;;5037875;28;19913;-80
2021/05/20 02:08:58;;;;;;;;;;;10.00;99.90;;;;;;5037443;28;19923;-79
2021/05/20 02:11:23;;;;;;;;;;;9.90;99.90;;;;;;5040689;28;20403;-79
2021/05/20 02:13:49;;;;;;;;;;;9.90;99.90;;;;;;5031497;28;19963;-80
2021/05/20 02:16:14;;;;;;;;;;;9.90;99.90;;;;;;5007618;28;19918;-82
2021/05/20 02:18:40;;;;;;;;;;;9.80;99.90;;;;;;5030446;28;19920;-80
2021/05/20 02:21:06;;;;;;;;;;;9.80;99.90;;;;;;5050084;28;20001;-82
2021/05/20 02:23:32;;;;;;;;;;;9.70;99.90;;;;;;5016199;28;19920;-80
2021/05/20 02:25:57;;;;;;;;;;;9.60;99.90;;;;;;5040560;28;19913;-80
2021/05/20 02:28:23;;;;;;;;;;;9.60;99.90;;;;;;5044970;28;19921;-81
2021/05/20 02:30:49;;;;;;;;;;;9.50;99.90;;;;;;5039479;28;19997;-80
2021/05/20 02:33:14;;;;;;;;;;;9.60;99.90;;;;;;5028264;28;20382;-79
2021/05/20 02:35:40;;;;;;;;;;;9.50;99.90;;;;;;5026455;28;19937;-78
2021/05/20 02:38:06;;;;;;;;;;;9.50;99.90;;;;;;5006672;28;19913;-77
2021/05/20 02:40:31;;;;;;;;;;;9.50;99.90;;;;;;5023072;28;19913;-79
2021/05/20 02:42:57;;;;;;;;;;;9.50;99.90;;;;;;5021326;28;19914;-81
2021/05/20 02:45:24;;;;;;;;;;;9.50;99.90;;;;;;5020557;28;20369;-78
2021/05/20 02:47:51;;;;;;;;;;;9.50;99.90;;;;;;5018754;28;19917;-79
2021/05/20 02:50:17;;;;;;;;;;;9.50;99.90;;;;;;5001018;28;19920;-78
2021/05/20 02:52:44;;;;;;;;;;;9.50;99.90;;;;;;5010912;28;19913;-81
2021/05/20 02:55:13;;;;;;;;;;;9.50;99.90;;;;;;5016097;28;19917;-78
2021/05/20 02:57:42;;;;;;;;;;;9.50;99.90;;;;;;5024359;28;19917;-84
2021/05/20 03:00:09;;;;;;;;;;;9.50;99.90;;;;;;4998614;28;19914;-83
2021/05/20 03:02:34;;;;;;;;;;;9.50;99.90;;;;;;5015293;28;20397;-84
2021/05/20 03:05:00;;;;;;;;;;;9.50;99.90;;;;;;5016838;28;19968;-83
2021/05/20 03:07:25;;;;;;;;;;;9.40;99.90;;;;;;5016885;28;19961;-83
2021/05/20 03:09:51;;;;;;;;;;;9.40;99.90;;;;;;5017235;28;20285;-83
2021/05/20 03:12:16;;;;;;;;;;;9.40;99.90;;;;;;4999076;28;19913;-83
2021/05/20 03:14:42;;;;;;;;;;;9.40;99.90;;;;;;5016224;28;19940;-83
2021/05/20 03:17:11;;;;;;;;;;;9.30;99.90;;;;;;5004528;28;19914;-83
2021/05/20 03:19:38;;;;;;;;;;;9.30;99.90;;;;;;5016365;28;19968;-82
2021/05/20 03:22:03;;;;;;;;;;;9.30;99.90;;;;;;4996551;28;20397;-83
2021/05/20 03:24:29;;;;;;;;;;;9.30;99.90;;;;;;4996983;28;19913;-83
2021/05/20 03:26:54;;;;;;;;;;;9.40;99.90;;;;;;5012050;28;19917;-82
2021/05/20 03:29:20;;;;;;;;;;;9.30;99.90;;;;;;5003553;28;19917;-83
2021/05/20 03:31:45;;;;;;;;;;;9.30;99.90;;;;;;5015070;28;19956;-83
2021/05/20 03:34:11;;;;;;;;;;;9.20;99.90;;;;;;5005387;28;19914;-83
2021/05/20 03:36:36;;;;;;;;;;;9.20;99.90;;;;;;5016131;28;20304;-83
2021/05/20 03:39:03;;;;;;;;;;;9.20;99.90;;;;;;5006915;28;20277;-82
2021/05/20 03:41:28;;;;;;;;;;;9.30;99.90;;;;;;5016054;28;19917;-83
2021/05/20 03:43:54;;;;;;;;;;;9.20;99.90;;;;;;4997759;28;19921;-82
2021/05/20 03:46:20;;;;;;;;;;;9.30;99.90;;;;;;4998213;28;19917;-83
2021/05/20 03:48:46;;;;;;;;;;;9.30;99.90;;;;;;5014550;28;19925;-83
2021/05/20 03:51:11;;;;;;;;;;;9.30;99.90;;;;;;5014985;28;19920;-84
2021/05/20 03:53:37;;;;;;;;;;;9.30;99.90;;;;;;5014725;28;19914;-83
2021/05/20 03:56:03;;;;;;;;;;;9.30;99.90;;;;;;5016062;28;19914;-83
2021/05/20 03:58:29;;;;;;;;;;;9.30;99.90;;;;;;5014697;28;19926;-83
2021/05/20 04:00:54;;;;;;;;;;;9.30;99.90;;;;;;4998073;28;19914;-83
2021/05/20 04:03:27;;;;;;;;;;;9.30;99.90;;;;;;5015384;28;20440;-83
2021/05/20 04:05:53;;;;;;;;;;;9.30;99.90;;;;;;4996439;28;19920;-82
2021/05/20 04:08:19;;;;;;;;;;;9.20;99.90;;;;;;4996806;28;19952;-83
2021/05/20 04:10:45;;;;;;;;;;;9.20;99.90;;;;;;5014422;28;19920;-83
2021/05/20 04:13:10;;;;;;;;;;;9.20;99.90;;;;;;5001111;28;19914;-83
2021/05/20 04:15:36;;;;;;;;;;;9.20;99.90;;;;;;5014883;28;20390;-82
2021/05/20 04:18:01;;;;;;;;;;;9.10;99.90;;;;;;5015275;28;20270;-83
2021/05/20 04:20:27;;;;;;;;;;;9.10;99.90;;;;;;5013030;28;19917;-82
2021/05/20 04:22:52;;;;;;;;;;;9.10;99.90;;;;;;5011049;28;19920;-82
2021/05/20 04:25:18;;;;;;;;;;;9.10;99.90;;;;;;5012234;28;20293;-82
2021/05/20 04:27:44;;;;;;;;;;;9.10;99.90;;;;;;4996552;28;19941;-83
2021/05/20 04:30:09;;;;;;;;;;;9.10;99.90;;;;;;5014751;28;20325;-82
2021/05/20 04:32:35;;;;;;;;;;;9.10;99.90;;;;;;5015636;28;19913;-82
2021/05/20 04:35:00;;;;;;;;;;;9.10;99.90;;;;;;5021911;28;19914;-83
2021/05/20 04:37:26;;;;;;;;;;;9.10;99.90;;;;;;5032569;28;19944;-82
2021/05/20 04:39:51;;;;;;;;;;;9.10;99.90;;;;;;5033783;28;19997;-81
2021/05/20 04:42:17;;;;;;;;;;;9.20;99.90;;;;;;5037395;28;19973;-82
2021/05/20 04:44:42;;;;;;;;;;;9.30;99.90;;;;;;5038284;28;19940;-83
2021/05/20 04:47:08;;;;;;;;;;;9.30;99.90;;;;;;5038193;28;19921;-82
2021/05/20 04:49:33;;;;;;;;;;;9.40;99.90;;;;;;5054996;28;19901;-82
2021/05/20 04:51:59;;;;;;;;;;;9.40;99.90;;;;;;5021681;28;19908;-83
2021/05/20 04:54:25;;;;;;;;;;;9.40;99.90;;;;;;5038248;28;19905;-82
2021/05/20 04:56:50;;;;;;;;;;;9.40;99.90;;;;;;5023921;28;19935;-83
2021/05/20 04:59:16;;;;;;;;;;;9.50;99.90;;;;;;5018967;28;19919;-83
2021/05/20 05:01:41;;;;;;;;;;;9.50;99.90;;;;;;5018252;28;19921;-83
2021/05/20 05:04:07;;;;;;;;;;;9.60;99.90;;;;;;5000145;28;19918;-82
2021/05/20 05:06:32;;;;;;;;;;;9.70;99.90;;;;;;4998625;28;19913;-83
2021/05/20 05:08:58;;;;;;;;;;;9.70;99.90;;;;;;5013831;28;19926;-83
2021/05/20 05:11:23;;;;;;;;;;;9.60;99.90;;;;;;4997752;28;19914;-84
2021/05/20 05:13:49;;;;;;;;;;;9.70;99.90;;;;;;5015092;28;19913;-83
2021/05/20 05:16:14;;;;;;;;;;;9.80;99.90;;;;;;5014688;28;20012;-84
2021/05/20 05:18:40;;;;;;;;;;;9.80;99.90;;;;;;5014599;28;19913;-83
2021/05/20 05:21:05;;;;;;;;;;;9.80;99.90;;;;;;4996869;28;19914;-83
2021/05/20 05:23:32;;;;;;;;;;;9.80;99.90;;;;;;4997642;28;19917;-83
2021/05/20 05:25:57;;;;;;;;;;;9.80;99.90;;;;;;4999611;28;20008;-83
2021/05/20 05:28:23;;;;;;;;;;;9.80;99.90;;;;;;5014918;28;19965;-84
2021/05/20 05:30:48;;;;;;;;;;;9.90;99.90;;;;;;5013047;28;19917;-83
2021/05/20 05:33:14;;;;;;;;;;;9.90;99.90;;;;;;5013089;28;19968;-83
2021/05/20 05:35:40;;;;;;;;;;;9.90;99.90;;;;;;5013118;28;20333;-83
2021/05/20 05:38:05;;;;;;;;;;;10.00;99.90;;;;;;5014168;28;19913;-83
2021/05/20 05:40:31;;;;;;;;;;;10.00;99.90;;;;;;5009058;28;19920;-83
2021/05/20 05:42:57;;;;;;;;;;;10.00;99.90;;;;;;5015254;28;19913;-83
2021/05/20 05:45:22;;;;;;;;;;;10.10;99.90;;;;;;5000446;28;19914;-83
2021/05/20 05:47:48;;;;;;;;;;;10.10;99.90;;;;;;5016710;28;19928;-81
2021/05/20 05:50:18;;;;;;;;;;;10.10;99.90;;;;;;5018682;28;19979;-83
2021/05/20 05:52:44;;;;;;;;;;;10.20;99.90;;;;;;5017672;28;19913;-83
2021/05/20 05:55:10;;;;;;;;;;;10.30;99.90;;;;;;5015874;28;19913;-83
2021/05/20 05:57:35;;;;;;;;;;;10.40;99.90;;;;;;5018305;28;19937;-83
2021/05/20 06:00:01;;;;;;;;;;;10.40;99.90;;;;;;5016794;28;19913;-83
2021/05/20 06:02:27;;;;;;;;;;;10.40;99.90;;;;;;5018574;28;19913;-83
2021/05/20 06:04:53;;;;;;;;;;;10.40;99.90;;;;;;5016727;28;19980;-83
2021/05/20 06:07:18;;;;;;;;;;;10.50;99.90;;;;;;5000459;28;19926;-83
2021/05/20 06:09:44;;;;;;;;;;;10.60;99.90;;;;;;5000925;28;19913;-83
2021/05/20 06:12:10;;;;;;;;;;;10.60;99.90;;;;;;4997026;28;20353;-83
2021/05/20 06:14:40;;;;;;;;;;;10.80;99.90;;;;;;5008760;28;19957;-83
2021/05/20 06:17:09;;;;;;;;;;;10.80;99.90;;;;;;5016239;28;19918;-82
2021/05/20 06:19:35;;;;;;;;;;;10.90;99.90;;;;;;5000530;28;20279;-83
2021/05/20 06:22:00;;;;;;;;;;;10.90;99.90;;;;;;5000329;28;20016;-82
2021/05/20 06:24:26;;;;;;;;;;;11.00;99.90;;;;;;5011534;28;19964;-82
2021/05/20 06:26:51;;;;;;;;;;;11.10;99.90;;;;;;5017667;28;20331;-84
2021/05/20 06:29:17;;;;;;;;;;;11.00;99.90;;;;;;5018408;28;19920;-84
2021/05/20 06:31:42;;;;;;;;;;;11.00;99.90;;;;;;5007636;28;19913;-83
2021/05/20 06:34:08;;;;;;;;;;;10.90;99.90;;;;;;5005658;28;19918;-84
2021/05/20 06:36:36;;;;;;;;;;;10.80;99.90;;;;;;5018472;28;19914;-84
2021/05/20 06:39:02;;;;;;;;;;;10.80;99.90;;;;;;4999477;28;19968;-83
2021/05/20 06:41:27;;;;;;;;;;;10.90;99.90;;;;;;4998720;28;19913;-83
2021/05/20 06:43:53;;;;;;;;;;;11.00;99.90;;;;;;5017918;28;19921;-83
2021/05/20 06:46:18;;;;;;;;;;;11.00;99.90;;;;;;5009358;28;20400;-85
2021/05/20 06:48:44;;;;;;;;;;;11.00;99.90;;;;;;5002861;28;19918;-83
2021/05/20 06:51:09;;;;;;;;;;;11.10;99.90;;;;;;5027656;28;19985;-82
2021/05/20 06:53:37;;;;;;;;;;;11.10;99.90;;;;;;4987084;28;19939;-83
2021/05/20 06:56:05;;;;;;;;;;;11.20;99.90;;;;;;5002509;28;19935;-82
2021/05/20 07:01:15;;;;;;;;;;;11.20;99.90;;;;;;5033890;28;19964;-83
2021/05/20 07:03:42;;;;;;;;;;;11.30;99.90;;;;;;5019574;28;19926;-83
2021/05/20 07:06:08;;;;;;;;;;;11.50;99.90;;;;;;5018940;28;19945;-83
2021/05/20 07:08:33;;;;;;;;;;;11.60;99.90;;;;;;5035131;28;19908;-81
2021/05/20 07:10:59;;;;;;;;;;;11.70;99.90;;;;;;5022988;28;19920;-79
2021/05/20 07:13:24;;;;;;;;;;;11.70;99.90;;;;;;5023787;28;19921;-84
2021/05/20 07:15:50;;;;;;;;;;;11.60;99.90;;;;;;5004587;28;20301;-83
2021/05/20 07:18:16;;;;;;;;;;;11.70;99.90;;;;;;5020309;28;19913;-83
2021/05/20 07:20:42;;;;;;;;;;;11.60;99.90;;;;;;5007454;28;19913;-81
2021/05/20 07:23:08;;;;;;;;;;;11.60;99.90;;;;;;5007880;28;19921;-83
2021/05/20 07:25:34;;;;;;;;;;;11.70;99.90;;;;;;5000136;28;19914;-82
2021/05/20 07:28:00;;;;;;;;;;;11.80;99.90;;;;;;5000569;28;19924;-83
2021/05/20 07:30:25;;;;;;;;;;;11.80;99.90;;;;;;5016665;28;20308;-82
2021/05/20 07:32:51;;;;;;;;;;;11.80;99.90;;;;;;5013185;28;19913;-83
2021/05/20 07:35:16;;;;;;;;;;;11.90;99.90;;;;;;5011827;28;19949;-83
2021/05/20 07:37:42;;;;;;;;;;;12.00;99.90;;;;;;5022330;28;19964;-82
2021/05/20 07:40:09;;;;;;;;;;;12.10;99.90;;;;;;5010035;28;19918;-82
2021/05/20 07:42:35;;;;;;;;;;;12.20;99.90;;;;;;5024415;28;19943;-83
2021/05/20 07:45:00;;;;;;;;;;;12.30;99.90;;;;;;5009833;28;19921;-83
2021/05/20 07:47:26;;;;;;;;;;;12.30;99.90;;;;;;4997362;28;19925;-82
2021/05/20 07:49:51;;;;;;;;;;;12.40;99.90;;;;;;5015463;28;19914;-82
2021/05/20 07:52:19;;;;;;;;;;;12.50;99.90;;;;;;5031061;28;19914;-82
2021/05/20 07:54:44;;;;;;;;;;;12.50;99.90;;;;;;5013442;28;19914;-82
2021/05/20 07:57:10;;;;;;;;;;;12.60;99.90;;;;;;4998298;28;19914;-82
2021/05/20 07:59:35;;;;;;;;;;;12.70;99.90;;;;;;4996230;28;19920;-82
2021/05/20 08:02:14;;;;;;;;;;;12.90;99.90;;;;;;4997579;28;20299;-82
2021/05/20 08:04:41;;;;;;;;;;;13.10;99.90;;;;;;5015196;28;20305;-82
2021/05/20 08:07:18;;;;;;;;;;;13.30;99.90;;;;;;5015279;28;20380;-82
2021/05/20 08:09:49;;;;;;;;;;;13.40;99.90;;;;;;5015326;28;19920;-81
2021/05/20 08:12:15;;;;;;;;;;;13.70;99.90;;;;;;5015217;28;19913;-80
2021/05/20 08:14:40;;;;;;;;;;;14.10;99.90;;;;;;4997415;28;19914;-82
2021/05/20 08:17:07;;;;;;;;;;;14.20;99.90;;;;;;5014619;28;19913;-81
2021/05/20 08:19:32;;;;;;;;;;;14.20;99.90;;;;;;4997078;28;20012;-82
2021/05/20 08:21:58;;;;;;;;;;;14.20;99.90;;;;;;4999120;28;19972;-77
2021/05/20 08:24:24;;;;;;;;;;;14.40;99.90;;;;;;4996796;28;20392;-81
2021/05/20 08:26:49;;;;;;;;;;;14.90;99.90;;;;;;4995725;28;20374;-78
2021/05/20 08:29:15;;;;;;;;;;;15.50;99.90;;;;;;5000610;28;19984;-83
2021/05/20 08:31:41;;;;;;;;;;;16.20;99.90;;;;;;5037171;28;19913;-80
2021/05/20 08:34:06;;;;;;;;;;;16.80;99.90;;;;;;5014485;28;20406;-79
2021/05/20 08:36:33;;;;;;;;;;;17.10;99.90;;;;;;5014304;28;19968;-80
2021/05/20 08:38:58;;;;;;;;;;;17.40;99.90;;;;;;5013762;28;19917;-77
2021/05/20 08:41:24;;;;;;;;;;;17.90;99.90;;;;;;5007099;28;19913;-78
2021/05/20 08:43:50;;;;;;;;;;;18.40;99.90;;;;;;5000549;28;20281;-79
2021/05/20 08:46:22;;;;;;;;;;;18.80;99.90;;;;;;5013746;28;19920;-82
2021/05/20 08:48:48;;;;;;;;;;;18.80;99.90;;;;;;4996493;28;20380;-79
2021/05/20 08:51:13;;;;;;;;;;;19.00;99.90;;;;;;4996521;28;19918;-80
2021/05/20 08:53:39;;;;;;;;;;;19.20;99.90;;;;;;5015518;28;20329;-79
2021/05/20 08:56:04;;;;;;;;;;;19.30;99.90;;;;;;5013652;28;19920;-80
2021/05/20 08:58:30;;;;;;;;;;;19.40;99.90;;;;;;5002501;28;19914;-80
2021/05/20 09:00:56;;;;;;;;;;;19.40;99.90;;;;;;5013726;28;20000;-80
2021/05/20 09:03:22;;;;;;;;;;;19.70;99.90;;;;;;5028145;28;19922;-80
2021/05/20 09:05:49;;;;;;;;;;;20.10;99.90;;;;;;5000389;28;19983;-81
2021/05/20 09:08:17;;;;;;;;;;;20.40;99.90;;;;;;5013210;28;20009;-81
2021/05/20 09:10:43;;;;;;;;;;;20.40;99.90;;;;;;4996133;28;19913;-81
2021/05/20 09:13:13;;;;;;;;;;;20.30;99.90;;;;;;4995377;28;19957;-81
2021/05/20 09:15:40;;;;;;;;;;;19.90;99.90;;;;;;4999917;28;19926;-81
2021/05/20 09:18:22;;;;;;;;;;;19.80;99.90;;;;;;5011252;28;19984;-80
2021/05/20 09:20:49;;;;;;;;;;;19.60;99.90;;;;;;5012748;28;20285;-81
2021/05/20 09:23:15;;;;;;;;;;;19.40;99.90;;;;;;5005832;28;19917;-80
2021/05/20 09:25:41;;;;;;;;;;;19.40;99.90;;;;;;5010515;28;19967;-79
2021/05/20 09:28:08;;;;;;;;;;;19.50;99.90;;;;;;4988448;28;19918;-79
2021/05/20 09:30:38;;;;;;;;;;;19.30;99.90;;;;;;4995015;28;19920;-80
2021/05/20 09:33:09;;;;;;;;;;;19.40;99.90;;;;;;5008317;28;20300;-80
2021/05/20 09:35:39;;;;;;;;;;;19.20;99.90;;;;;;5027296;28;19953;-80
2021/05/20 09:38:19;;;;;;;;;;;18.70;99.90;;;;;;5014035;28;19922;-80
2021/05/20 09:40:48;;;;;;;;;;;18.20;99.90;;;;;;4998282;28;19914;-80
2021/05/20 09:43:17;;;;;;;;;;;17.90;99.90;;;;;;4990139;28;20317;-80
2021/05/20 09:45:43;;;;;;;;;;;17.90;99.90;;;;;;4991365;28;20012;-80
2021/05/20 09:48:09;;;;;;;;;;;18.00;99.90;;;;;;4999225;28;20017;-80
2021/05/20 09:50:36;;;;;;;;;;;18.20;99.90;;;;;;4998483;28;19960;-80
2021/05/20 09:53:02;;;;;;;;;;;18.40;99.90;;;;;;4998246;28;20012;-79
2021/05/20 09:55:28;;;;;;;;;;;18.80;99.90;;;;;;4996777;28;20523;-80
2021/05/20 09:57:54;;;;;;;;;;;19.30;99.90;;;;;;4995874;28;19949;-80
2021/05/20 10:00:29;;;;;;;;;;;19.30;99.90;;;;;;5013343;28;20262;-80
2021/05/20 10:03:05;;;;;;;;;;;19.60;99.90;;;;;;4992338;28;21544;-79
2021/05/20 10:05:35;;;;;;;;;;;19.90;99.90;;;;;;4988746;28;19914;-79
2021/05/20 10:08:02;;;;;;;;;;;19.90;99.90;;;;;;4996125;28;19924;-80
2021/05/20 10:10:28;;;;;;;;;;;19.60;99.90;;;;;;4989762;28;19925;-80
2021/05/20 10:12:54;;;;;;;;;;;19.10;99.90;;;;;;4993398;28;20254;-79
2021/05/20 10:15:21;;;;;;;;;;;18.80;99.90;;;;;;4991018;28;19914;-80
2021/05/20 10:17:47;;;;;;;;;;;19.00;99.90;;;;;;4993478;28;19929;-80
2021/05/20 10:20:14;;;;;;;;;;;19.40;99.90;;;;;;4993361;28;19972;-80
2021/05/20 10:22:39;;;;;;;;;;;19.60;99.90;;;;;;4992388;28;19921;-80
2021/05/20 10:25:06;;;;;;;;;;;19.50;99.90;;;;;;4996002;28;20339;-79
2021/05/20 10:27:31;;;;;;;;;;;19.30;99.90;;;;;;4997360;28;19918;-80
2021/05/20 10:30:00;;;;;;;;;;;19.00;99.90;;;;;;4997927;28;19920;-80
2021/05/20 10:32:27;;;;;;;;;;;18.70;99.90;;;;;;4996718;28;19924;-79
2021/05/20 10:34:59;;;;;;;;;;;18.50;99.90;;;;;;5007673;28;19910;-79
2021/05/20 10:37:36;;;;;;;;;;;18.70;99.90;;;;;;5008726;28;19914;-79
2021/05/20 10:40:06;;;;;;;;;;;18.90;99.90;;;;;;5018908;28;19914;-80
2021/05/20 10:42:42;;;;;;;;;;;19.00;99.90;;;;;;5009018;28;19977;-80
2021/05/20 10:45:22;;;;;;;;;;;18.90;99.90;;;;;;5010078;28;20112;-80
2021/05/20 10:48:07;;;;;;;;;;;18.80;99.90;;;;;;5010461;28;20471;-79
2021/05/20 10:50:45;;;;;;;;;;;18.50;99.90;;;;;;5025367;28;19946;-79
2021/05/20 10:53:11;;;;;;;;;;;18.60;99.90;;;;;;5012819;28;19910;-79
2021/05/20 10:55:37;;;;;;;;;;;18.70;99.90;;;;;;5013981;28;19937;-80
2021/05/20 10:58:02;;;;;;;;;;;18.90;99.90;;;;;;5014078;28;19913;-80
2021/05/20 11:00:34;;;;;;;;;;;19.00;99.90;;;;;;5016857;28;19977;-80
2021/05/20 11:03:00;;;;;;;;;;;19.00;99.90;;;;;;5015070;28;19914;-80
2021/05/20 11:05:41;;;;;;;;;;;18.70;99.90;;;;;;5020190;28;19905;-80
2021/05/20 11:08:11;;;;;;;;;;;18.30;99.90;;;;;;5033996;28;19928;-79
2021/05/20 11:10:37;;;;;;;;;;;18.20;99.90;;;;;;5020006;28;19913;-79
2021/05/20 11:13:03;;;;;;;;;;;18.30;99.90;;;;;;5019265;28;19917;-79
2021/05/20 11:15:29;;;;;;;;;;;18.30;99.90;;;;;;5019588;28;19965;-78
2021/05/20 11:17:55;;;;;;;;;;;18.30;99.90;;;;;;5030240;28;20029;-80
2021/05/20 11:20:23;;;;;;;;;;;18.30;99.90;;;;;;5026001;28;19920;-79
2021/05/20 11:23:07;;;;;;;;;;;18.20;99.90;;;;;;5020985;28;19981;-79
2021/05/20 11:25:32;;;;;;;;;;;18.10;99.90;;;;;;5021665;28;19953;-79
2021/05/20 11:28:00;;;;;;;;;;;18.10;99.90;;;;;;5020384;28;20427;-79
2021/05/20 11:30:25;;;;;;;;;;;18.00;99.90;;;;;;5019376;28;19913;-78
2021/05/20 11:32:54;;;;;;;;;;;18.00;99.90;;;;;;5017803;28;19920;-79
2021/05/20 11:35:42;;;;;;;;;;;17.90;99.90;;;;;;5001188;28;19921;-80
2021/05/20 11:38:28;;;;;;;;;;;17.70;99.90;;;;;;5001350;28;20301;-79
2021/05/20 11:40:55;;;;;;;;;;;17.70;99.90;;;;;;5033627;28;20357;-80
2021/05/20 11:43:28;;;;;;;;;;;17.60;99.90;;;;;;4995398;28;19917;-79
2021/05/20 11:45:53;;;;;;;;;;;17.60;99.90;;;;;;4998745;28;19913;-79
2021/05/20 11:48:19;;;;;;;;;;;17.60;99.90;;;;;;5010890;28;20336;-79
2021/05/20 11:50:52;;;;;;;;;;;17.50;99.90;;;;;;5010619;28;19917;-79
2021/05/20 11:53:19;;;;;;;;;;;17.60;99.90;;;;;;5014205;28;20355;-80
2021/05/20 11:55:46;;;;;;;;;;;17.60;99.90;;;;;;4998716;28;20361;-79
2021/05/20 11:58:12;;;;;;;;;;;17.60;99.90;;;;;;5011753;28;19989;-79
2021/05/20 12:00:38;;;;;;;;;;;17.70;99.90;;;;;;4999426;28;20388;-79
2021/05/20 12:03:04;;;;;;;;;;;17.80;99.90;;;;;;5013456;28;19922;-79
2021/05/20 12:05:29;;;;;;;;;;;17.90;99.90;;;;;;5014073;28;19924;-80
2021/05/20 12:07:55;;;;;;;;;;;18.10;99.90;;;;;;5013604;28;19922;-80
2021/05/20 12:10:23;;;;;;;;;;;18.20;99.90;;;;;;5014536;28;19967;-79
2021/05/20 12:12:57;;;;;;;;;;;18.30;99.90;;;;;;5013498;28;20266;-79
2021/05/20 12:15:25;;;;;;;;;;;18.10;99.90;;;;;;5006884;28;20277;-79
2021/05/20 12:17:51;;;;;;;;;;;18.00;99.90;;;;;;5011739;28;19948;-80
2021/05/20 12:20:19;;;;;;;;;;;18.00;99.90;;;;;;5014376;28;19996;-79
2021/05/20 12:22:45;;;;;;;;;;;17.90;99.90;;;;;;5014230;28;19914;-79
2021/05/20 12:25:17;;;;;;;;;;;18.00;99.90;;;;;;5004566;28;20396;-80
2021/05/20 12:27:48;;;;;;;;;;;18.10;99.90;;;;;;4993055;28;19918;-79
2021/05/20 12:30:17;;;;;;;;;;;18.20;99.90;;;;;;4999527;28;19952;-80
2021/05/20 12:32:46;;;;;;;;;;;18.20;99.90;;;;;;5028644;28;19913;-80
2021/05/20 12:35:13;;;;;;;;;;;18.30;99.90;;;;;;5028991;28;19913;-79
2021/05/20 12:37:40;;;;;;;;;;;18.20;99.90;;;;;;4996704;28;19913;-79
2021/05/20 12:40:25;;;;;;;;;;;18.10;99.90;;;;;;5000085;28;19937;-80
2021/05/20 12:43:04;;;;;;;;;;;18.00;99.90;;;;;;5012962;28;20306;-80
2021/05/20 12:45:31;;;;;;;;;;;17.80;99.90;;;;;;5014461;28;19913;-80
2021/05/20 12:47:56;;;;;;;;;;;17.70;99.90;;;;;;5011865;28;19964;-80
2021/05/20 12:50:36;;;;;;;;;;;17.70;99.90;;;;;;5013772;28;20270;-80
2021/05/20 12:53:02;;;;;;;;;;;17.70;99.90;;;;;;5006289;28;19918;-80
2021/05/20 12:55:34;;;;;;;;;;;17.80;99.90;;;;;;4998964;28;20281;-80
2021/05/20 12:58:00;;;;;;;;;;;17.80;99.90;;;;;;5026660;28;19920;-80
2021/05/20 13:00:49;;;;;;;;;;;17.90;99.90;;;;;;5014319;28;19914;-78
2021/05/20 13:03:14;;;;;;;;;;;17.90;99.90;;;;;;5010561;28;20306;-80
2021/05/20 13:05:50;;;;;;;;;;;18.00;99.90;;;;;;5012596;28;19960;-80
2021/05/20 13:08:30;;;;;;;;;;;17.90;99.90;;;;;;5012863;28;19922;-80
2021/05/20 13:10:55;;;;;;;;;;;17.80;99.90;;;;;;4982724;28;19914;-80
2021/05/20 13:13:32;;;;;;;;;;;17.70;99.90;;;;;;5008632;28;20279;-80
2021/05/20 13:16:09;;;;;;;;;;;17.70;99.90;;;;;;5001434;28;19981;-80
2021/05/20 13:23:42;;;;;;;;;;;17.60;99.90;;;;;;5014638;28;20004;-79
2021/05/20 13:26:08;;;;;;;;;;;17.60;99.90;;;;;;5002613;28;19953;-79
2021/05/20 13:28:34;;;;;;;;;;;17.60;99.90;;;;;;5013883;28;20392;-80
2021/05/20 13:31:02;;;;;;;;;;;17.70;99.90;;;;;;5013385;28;20004;-80
2021/05/20 13:33:30;;;;;;;;;;;17.60;99.90;;;;;;5005408;28;20502;-80
2021/05/20 13:35:59;;;;;;;;;;;17.50;99.90;;;;;;5013056;28;20437;-80
2021/05/20 13:38:24;;;;;;;;;;;17.60;99.90;;;;;;4993461;28;19914;-80
2021/05/20 13:40:55;;;;;;;;;;;17.60;99.90;;;;;;5001503;28;19968;-81
2021/05/20 13:43:20;;;;;;;;;;;17.70;99.90;;;;;;5010347;28;19914;-80
2021/05/20 13:45:45;;;;;;;;;;;17.60;99.90;;;;;;5014436;28;19968;-80
2021/05/20 13:48:11;;;;;;;;;;;17.60;99.90;;;;;;5007693;28;20369;-80
2021/05/20 13:50:37;;;;;;;;;;;17.60;99.90;;;;;;5013614;28;19913;-81
2021/05/20 13:53:03;;;;;;;;;;;17.50;99.90;;;;;;5012061;28;19913;-80
2021/05/20 13:55:29;;;;;;;;;;;17.40;99.90;;;;;;4993692;28;19964;-81
2021/05/20 13:57:55;;;;;;;;;;;17.30;99.90;;;;;;5008784;28;19914;-81
2021/05/20 14:02:47;;;;;;;;;;;17.10;99.90;;;;;;5017420;28;19914;-81
2021/05/20 14:05:12;;;;;;;;;;;17.00;99.90;;;;;;5018194;28;19926;-81
2021/05/20 14:07:38;;;;;;;;;;;17.00;99.90;;;;;;4999826;28;19948;-81
2021/05/20 14:10:03;;;;;;;;;;;16.90;99.90;;;;;;5031670;28;19914;-80
2021/05/20 14:12:29;;;;;;;;;;;16.90;99.90;;;;;;5006715;28;19914;-81
2021/05/20 14:14:56;;;;;;;;;;;16.90;99.90;;;;;;5015111;28;20271;-81
2021/05/20 14:17:21;;;;;;;;;;;16.80;99.90;;;;;;5013362;28;20366;-79
2021/05/20 14:19:53;;;;;;;;;;;16.80;99.90;;;;;;5003719;28;19923;-80
2021/05/20 14:22:19;;;;;;;;;;;16.80;99.90;;;;;;5015598;28;19989;-81
2021/05/20 14:24:45;;;;;;;;;;;16.80;99.90;;;;;;5018587;28;19913;-81
2021/05/20 14:27:14;;;;;;;;;;;16.80;99.90;;;;;;5016828;28;19914;-80
2021/05/20 14:29:43;;;;;;;;;;;16.80;99.90;;;;;;5018061;28;20408;-81